Terminal Aerodrome Forecast
Issued by NWS Tuscon, AZ

Home | Current Version | Previous Version | Text Only | Print | Product List | Glossary On
Versions: 1 2 3 4 5 6 7 8 9 10 11 12
000
FTUS45 KTWC 252300
TAFTUS
TAF
KTUS 252327Z 2600/2624 24008KT P6SM SCT100 SCT250
     FM260300 21006KT P6SM SCT110 SCT250
     FM260800 14007KT P6SM FEW250
     FM261600 18006KT P6SM BKN220
     FM262100 27011KT P6SM OVC200=

USA.gov is the U.S. government's official web portal to all federal, state and local government web resources and services.